Time;durP1;ratioP1;P1;durP2;ratioP2;P2;SDS_P1;SDS_P2;PMS_P1;PMS_P2;Temp;Humidity;BMP_temperature;BMP_pressure;BME280_temperature;BME280_humidity;BME280_pressure;Samples;Min_cycle;Max_cycle;Signal;HPM_P1;HPM_P2
2023/02/03 00:00:27;;;;;;;24.13;8.15;;;;;;;7.36;100.00;102348.41;5083408;28;20040;-75
2023/02/03 00:02:53;;;;;;;24.00;8.20;;;;;;;7.38;100.00;102350.25;5084296;28;20511;-74
2023/02/03 00:05:19;;;;;;;22.25;8.13;;;;;;;7.36;100.00;102345.78;5081440;28;20032;-75
2023/02/03 00:07:45;;;;;;;22.77;7.35;;;;;;;7.40;100.00;102352.97;5082483;28;20032;-74
2023/02/03 00:10:11;;;;;;;23.33;7.80;;;;;;;7.40;100.00;102358.22;5085194;28;20027;-74
2023/02/03 00:12:36;;;;;;;21.88;7.45;;;;;;;7.43;100.00;102347.81;5083632;28;20031;-75
2023/02/03 00:15:02;;;;;;;22.92;7.35;;;;;;;7.46;100.00;102353.22;5083839;28;20074;-74
2023/02/03 00:17:27;;;;;;;22.52;7.50;;;;;;;7.39;100.00;102346.78;5084775;28;20398;-74
2023/02/03 00:19:53;;;;;;;23.20;7.38;;;;;;;7.39;100.00;102356.44;5082582;28;20029;-74
2023/02/03 00:22:18;;;;;;;23.63;7.45;;;;;;;7.41;100.00;102365.25;5085379;28;20028;-74
2023/02/03 00:24:43;;;;;;;22.95;7.20;;;;;;;7.47;100.00;102376.03;5082450;28;20041;-74
2023/02/03 00:27:08;;;;;;;21.38;6.93;;;;;;;7.46;100.00;102379.53;5084675;28;20028;-75
2023/02/03 00:29:34;;;;;;;22.23;6.75;;;;;;;7.42;100.00;102373.22;5083119;28;20575;-73
2023/02/03 00:31:59;;;;;;;23.75;7.00;;;;;;;7.44;100.00;102376.84;5083437;28;20512;-76
2023/02/03 00:34:28;;;;;;;23.40;7.30;;;;;;;7.45;100.00;102377.72;5084964;28;20059;-75
2023/02/03 00:36:54;;;;;;;21.77;6.68;;;;;;;7.48;100.00;102394.56;5082310;28;20075;-76
2023/02/03 00:39:19;;;;;;;22.67;7.10;;;;;;;7.46;100.00;102387.41;5085535;28;20482;-74
2023/02/03 00:41:45;;;;;;;23.38;6.95;;;;;;;7.46;100.00;102382.16;5081688;28;20028;-76
2023/02/03 00:44:10;;;;;;;24.02;6.97;;;;;;;7.47;100.00;102387.47;5084299;28;20031;-74
2023/02/03 00:46:36;;;;;;;21.00;6.32;;;;;;;7.49;100.00;102382.28;5083279;28;20043;-74
2023/02/03 00:49:02;;;;;;;21.77;6.40;;;;;;;7.54;100.00;102377.19;5083018;28;20425;-76
2023/02/03 00:51:28;;;;;;;22.75;7.00;;;;;;;7.49;100.00;102372.66;5084086;28;20051;-73
2023/02/03 00:53:53;;;;;;;21.75;6.38;;;;;;;7.52;100.00;102385.03;5082167;28;20064;-74
2023/02/03 00:56:18;;;;;;;21.92;6.60;;;;;;;7.51;100.00;102364.81;5083717;28;20021;-73
2023/02/03 00:58:44;;;;;;;21.30;6.20;;;;;;;7.52;100.00;102379.78;5081884;28;20386;-74
2023/02/03 01:01:10;;;;;;;22.48;6.57;;;;;;;7.54;100.00;102393.88;5083943;28;20438;-74
2023/02/03 01:03:35;;;;;;;22.13;6.25;;;;;;;7.53;100.00;102394.75;5082773;28;20035;-75
2023/02/03 01:06:20;;;;;;;20.92;5.70;;;;;;;7.57;100.00;102399.31;5082137;28;20530;-74
2023/02/03 01:08:46;;;;;;;20.83;5.70;;;;;;;7.58;100.00;102390.53;5081564;28;20150;-74
2023/02/03 01:11:15;;;;;;;21.77;6.50;;;;;;;7.59;100.00;102399.38;5084030;28;20028;-74
2023/02/03 01:13:41;;;;;;;21.70;5.85;;;;;;;7.59;100.00;102407.25;5082209;28;20028;-74
2023/02/03 01:16:09;;;;;;;21.48;6.10;;;;;;;7.54;100.00;102409.66;5083588;28;20036;-74
2023/02/03 01:18:34;;;;;;;22.65;6.00;;;;;;;7.55;100.00;102414.09;5082780;28;20103;-74
2023/02/03 01:21:17;;;;;;;21.85;5.95;;;;;;;7.58;100.00;102394.94;5082246;28;20376;-76
2023/02/03 01:23:43;;;;;;;20.88;5.70;;;;;;;7.55;100.00;102398.31;5081379;28;20428;-76
2023/02/03 01:26:11;;;;;;;22.00;5.65;;;;;;;7.52;100.00;102403.47;5083700;28;20059;-74
2023/02/03 01:28:37;;;;;;;20.48;5.57;;;;;;;7.49;100.00;102395.44;5082268;28;20474;-74
2023/02/03 01:31:12;;;;;;;21.10;5.45;;;;;;;7.44;100.00;102383.81;5082484;28;20052;-74
2023/02/03 01:33:39;;;;;;;22.20;5.55;;;;;;;7.44;100.00;102381.19;5082059;28;20111;-74
2023/02/03 01:36:07;;;;;;;22.35;5.72;;;;;;;7.47;100.00;102382.22;5083099;28;20059;-74
2023/02/03 01:38:32;;;;;;;21.30;5.25;;;;;;;7.52;100.00;102378.88;5082768;28;20466;-74
2023/02/03 01:40:57;;;;;;;20.83;5.25;;;;;;;7.49;100.00;102369.13;5081801;28;20024;-73
2023/02/03 01:43:34;;;;;;;20.85;5.30;;;;;;;7.53;100.00;102405.25;5084263;28;20036;-74
2023/02/03 01:46:03;;;;;;;20.52;5.05;;;;;;;7.51;100.00;102385.88;5081922;28;20036;-76
2023/02/03 01:48:31;;;;;;;20.92;5.25;;;;;;;7.52;100.00;102373.63;5083327;28;20032;-74
2023/02/03 01:50:59;;;;;;;21.63;5.20;;;;;;;7.55;100.00;102379.00;5081771;28;20038;-74
2023/02/03 01:53:24;;;;;;;21.42;5.20;;;;;;;7.54;100.00;102371.94;5083784;28;20102;-75
2023/02/03 01:55:50;;;;;;;19.50;5.13;;;;;;;7.51;100.00;102383.22;5080729;28;20120;-75
2023/02/03 01:58:30;;;;;;;19.67;4.70;;;;;;;7.54;100.00;102370.19;5084348;28;20115;-74
2023/02/03 02:00:57;;;;;;;18.50;5.10;;;;;;;7.52;100.00;102368.38;5081710;28;20024;-75
2023/02/03 02:03:31;;;;;;;19.15;4.60;;;;;;;7.51;100.00;102362.19;5083903;28;20036;-75
2023/02/03 02:06:00;;;;;;;20.65;4.65;;;;;;;7.57;100.00;102357.19;5081401;28;20455;-74
2023/02/03 02:08:26;;;;;;;19.38;4.50;;;;;;;7.54;100.00;102345.63;5083385;28;20043;-75
2023/02/03 02:10:52;;;;;;;20.15;4.90;;;;;;;7.52;100.00;102326.25;5080865;28;20025;-75
2023/02/03 02:13:18;;;;;;;20.48;4.60;;;;;;;7.52;100.00;102331.53;5084085;28;20028;-74
2023/02/03 02:16:07;;;;;;;21.33;4.65;;;;;;;7.52;100.00;102340.28;5081440;28;20383;-76
2023/02/03 02:18:53;;;;;;;19.13;4.43;;;;;;;7.59;100.00;102336.19;5084254;28;20025;-73
2023/02/03 02:21:36;;;;;;;17.42;3.80;;;;;;;7.62;100.00;102338.94;5084428;28;20032;-74
2023/02/03 02:24:20;;;;;;;18.33;4.40;;;;;;;7.57;100.00;102351.94;5085865;28;20032;-75
2023/02/03 02:27:07;;;;;;;18.50;3.72;;;;;;;7.58;100.00;102361.59;5084471;28;20154;-73
2023/02/03 02:29:57;;;;;;;19.08;4.18;;;;;;;7.58;100.00;102353.69;5085542;28;20045;-76
2023/02/03 02:32:37;;;;;;;18.98;4.00;;;;;;;7.66;100.00;102347.03;5084299;28;20044;-75
2023/02/03 02:35:08;;;;;;;17.70;3.90;;;;;;;7.71;100.00;102351.56;5086162;28;20028;-74
2023/02/03 02:37:52;;;;;;;19.42;4.10;;;;;;;7.61;100.00;102359.09;5085942;28;20029;-76
2023/02/03 02:40:55;;;;;;;19.75;4.07;;;;;;;7.64;100.00;102353.94;5084382;28;20032;-74
2023/02/03 02:43:46;;;;;;;18.25;4.00;;;;;;;7.62;100.00;102371.41;5087166;28;20032;-74
2023/02/03 02:46:16;;;;;;;18.67;3.90;;;;;;;7.64;100.00;102372.38;5086749;28;20093;-74
2023/02/03 02:48:55;;;;;;;18.00;3.70;;;;;;;7.62;100.00;102374.06;5085157;28;20390;-76
2023/02/03 02:51:22;;;;;;;18.27;3.92;;;;;;;7.67;100.00;102354.09;5084167;28;20074;-74
2023/02/03 02:53:53;;;;;;;17.58;3.55;;;;;;;7.72;100.00;102366.50;5083852;28;20029;-75
2023/02/03 02:56:20;;;;;;;19.08;3.50;;;;;;;7.71;100.00;102339.31;5083784;28;20059;-76
2023/02/03 02:58:48;;;;;;;16.75;3.50;;;;;;;7.73;100.00;102347.25;5087265;28;20031;-74
2023/02/03 03:01:15;;;;;;;17.38;3.50;;;;;;;7.69;100.00;102335.72;5084113;28;20035;-74
2023/02/03 03:03:43;;;;;;;18.23;3.80;;;;;;;7.74;100.00;102351.69;5084820;28;20437;-74
2023/02/03 03:06:20;;;;;;;17.88;3.85;;;;;;;7.76;100.00;102343.03;5085012;28;20024;-74
2023/02/03 03:08:59;;;;;;;18.35;3.67;;;;;;;7.75;100.00;102350.88;5087063;28;20031;-74
2023/02/03 03:11:30;;;;;;;15.98;3.65;;;;;;;7.81;100.00;102353.75;5084190;28;20029;-76
2023/02/03 03:13:56;;;;;;;17.13;3.53;;;;;;;7.80;100.00;102355.44;5086465;28;20081;-74
2023/02/03 03:16:24;;;;;;;16.02;3.45;;;;;;;7.75;100.00;102353.50;5083491;28;20032;-74
2023/02/03 03:19:03;;;;;;;17.10;3.67;;;;;;;7.74;100.00;102338.53;5083607;28;20123;-76
2023/02/03 03:21:35;;;;;;;18.35;3.63;;;;;;;7.72;100.00;102337.56;5084260;28;20024;-75
2023/02/03 03:24:04;;;;;;;17.80;3.55;;;;;;;7.75;100.00;102332.44;5085659;28;20360;-74
2023/02/03 03:26:38;;;;;;;15.85;3.45;;;;;;;7.75;100.00;102330.69;5082875;28;20429;-78
2023/02/03 03:29:15;;;;;;;16.38;3.35;;;;;;;7.75;100.00;102335.97;5084428;28;20024;-84
2023/02/03 03:31:40;;;;;;;14.95;3.20;;;;;;;7.74;100.00;102328.91;5085828;28;20102;-80
2023/02/03 03:34:11;;;;;;;16.30;3.42;;;;;;;7.74;100.00;102328.00;5083537;28;20036;-84
2023/02/03 03:37:04;;;;;;;16.35;3.47;;;;;;;7.76;100.00;102327.25;5085036;28;20032;-82
2023/02/03 03:39:35;;;;;;;;;;;;;;;7.85;100.00;102321.44;5084393;28;20125;-78
2023/02/03 03:42:38;;;;;;;14.13;3.30;;;;;;;7.78;100.00;102317.66;5085260;28;19912;-84
2023/02/03 03:45:07;;;;;;;15.75;3.15;;;;;;;7.83;100.00;102305.56;5077663;28;20076;-84
2023/02/03 03:47:39;;;;;;;15.98;3.20;;;;;;;7.84;100.00;102309.09;5084982;28;20027;-82
2023/02/03 03:50:06;;;;;;;;;;;;;;;7.89;100.00;102304.00;5085092;28;20020;-84
2023/02/03 03:52:34;;;;;;;15.27;3.28;;;;;;;7.92;100.00;102302.41;5084931;28;19912;-84
2023/02/03 03:55:03;;;;;;;12.45;2.95;;;;;;;7.89;100.00;102318.06;5083601;28;20113;-77
2023/02/03 03:57:35;;;;;;;14.10;2.90;;;;;;;7.90;100.00;102337.41;5085636;28;20122;-81
2023/02/03 04:00:04;;;;;;;14.23;2.78;;;;;;;7.87;100.00;102330.28;5083904;28;20427;-77
2023/02/03 04:02:33;;;;;;;14.85;3.10;;;;;;;7.87;100.00;102330.28;5084965;28;20031;-77
2023/02/03 04:05:00;;;;;;;15.13;3.05;;;;;;;7.88;100.00;102341.69;5083278;28;20025;-77
2023/02/03 04:07:44;;;;;;;13.82;2.70;;;;;;;7.84;100.00;102344.22;5085770;28;20051;-83
2023/02/03 04:10:25;;;;;;;15.82;3.00;;;;;;;7.92;100.00;102347.16;5084794;28;20028;-81
2023/02/03 04:12:50;;;;;;;17.15;3.45;;;;;;;7.98;100.00;102355.31;5082618;28;20094;-84
2023/02/03 04:15:16;;;;;;;14.95;2.80;;;;;;;7.99;100.00;102356.19;5085408;28;20024;-82
2023/02/03 04:17:41;;;;;;;13.70;2.85;;;;;;;7.93;100.00;102348.94;5083133;28;20067;-81
2023/02/03 04:20:07;;;;;;;16.20;2.80;;;;;;;7.88;100.00;102342.63;5084255;28;20032;-77
2023/02/03 04:22:32;;;;;;;14.93;3.10;;;;;;;7.94;100.00;102361.28;5084036;28;20067;-84
2023/02/03 04:24:57;;;;;;;14.65;2.70;;;;;;;7.99;100.00;102351.84;5082932;28;20035;-82
2023/02/03 04:27:26;;;;;;;15.25;2.97;;;;;;;8.01;100.00;102367.69;5085502;28;20048;-80
2023/02/03 04:29:52;;;;;;;11.73;2.58;;;;;;;7.98;100.00;102354.38;5081830;28;20043;-74
2023/02/03 04:32:18;;;;;;;16.25;2.75;;;;;;;8.08;100.00;102363.53;5085526;28;20055;-76
2023/02/03 04:34:43;;;;;;;12.82;2.65;;;;;;;7.96;100.00;102367.50;5082486;28;20040;-76
2023/02/03 04:37:09;;;;;;;11.07;2.67;;;;;;;8.06;100.00;102357.34;5082841;28;20032;-75
2023/02/03 04:39:34;;;;;;;15.57;2.70;;;;;;;8.03;100.00;102369.53;5083966;28;20115;-76
2023/02/03 04:41:59;;;;;;;13.57;2.83;;;;;;;7.97;100.00;102342.97;5082524;28;20116;-74
2023/02/03 04:44:24;;;;;;;12.32;2.63;;;;;;;7.97;100.00;102358.75;5084911;28;20398;-76
2023/02/03 04:46:50;;;;;;;12.95;2.60;;;;;;;8.03;100.00;102358.09;5081890;28;20441;-76
2023/02/03 04:49:16;;;;;;;12.93;2.60;;;;;;;8.03;100.00;102353.72;5084847;28;20444;-76
2023/02/03 04:51:43;;;;;;;12.93;2.63;;;;;;;7.99;100.00;102340.38;5082738;28;20020;-74
2023/02/03 04:54:09;;;;;;;13.63;2.65;;;;;;;7.98;100.00;102341.22;5083920;28;20028;-74
2023/02/03 04:56:34;;;;;;;14.07;2.83;;;;;;;7.94;100.00;102353.38;5083442;28;20020;-74
2023/02/03 04:58:59;;;;;;;15.32;2.60;;;;;;;7.97;100.00;102329.78;5080986;28;20032;-74
2023/02/03 05:01:25;;;;;;;13.88;3.00;;;;;;;8.00;100.00;102321.13;5085177;28;20039;-74
2023/02/03 05:03:50;;;;;;;17.00;3.10;;;;;;;8.02;100.00;102324.69;5081431;28;20060;-74
2023/02/03 05:06:15;;;;;;;15.57;2.88;;;;;;;8.07;100.00;102319.59;5084393;28;20039;-79
2023/02/03 05:08:41;;;;;;;15.65;2.63;;;;;;;8.01;100.00;102321.19;5082615;28;20094;-84
2023/02/03 05:11:06;;;;;;;14.77;2.90;;;;;;;8.06;100.00;102328.38;5083171;28;20048;-82
2023/02/03 05:13:31;;;;;;;14.27;2.60;;;;;;;8.01;100.00;102323.81;5083731;28;20104;-82
2023/02/03 05:15:57;;;;;;;12.68;2.60;;;;;;;8.03;100.00;102327.38;5081661;28;20033;-84
2023/02/03 05:18:22;;;;;;;11.40;2.70;;;;;;;8.05;100.00;102335.34;5084756;28;20121;-80
2023/02/03 05:20:47;;;;;;;14.90;3.00;;;;;;;8.03;100.00;102330.03;5081658;28;20032;-81
2023/02/03 05:23:13;;;;;;;14.35;2.70;;;;;;;8.15;100.00;102353.28;5083802;28;20036;-83
2023/02/03 05:25:38;;;;;;;14.93;2.70;;;;;;;8.11;100.00;102351.41;5082499;28;20028;-82
2023/02/03 05:28:03;;;;;;;12.45;2.55;;;;;;;8.05;100.00;102348.50;5082737;28;20107;-77
2023/02/03 05:30:29;;;;;;;17.10;2.80;;;;;;;8.14;100.00;102350.59;5083696;28;20040;-79
2023/02/03 05:32:54;;;;;;;12.77;2.55;;;;;;;8.19;100.00;102349.06;5081111;28;20031;-82
2023/02/03 05:35:19;;;;;;;15.82;2.90;;;;;;;8.10;100.00;102354.00;5084732;28;20028;-78
2023/02/03 05:37:45;;;;;;;14.40;2.50;;;;;;;8.14;100.00;102367.34;5081516;28;20043;-84
2023/02/03 05:42:56;;;;;;;12.52;2.35;;;;;;;8.03;100.00;102353.72;5081378;28;20067;-79
2023/02/03 05:45:21;;;;;;;12.93;2.60;;;;;;;8.14;100.00;102376.94;5084672;28;20463;-85
2023/02/03 05:47:46;;;;;;;9.95;2.40;;;;;;;8.12;100.00;102368.09;5081180;28;20024;-78
2023/02/03 05:50:12;;;;;;;13.25;2.45;;;;;;;8.09;100.00;102365.34;5083575;28;20025;-84
2023/02/03 05:52:37;;;;;;;14.82;2.63;;;;;;;8.02;100.00;102367.75;5083441;28;20024;-84
2023/02/03 05:55:03;;;;;;;13.60;2.60;;;;;;;8.04;100.00;102354.66;5086132;28;20060;-82
2023/02/03 05:57:28;;;;;;;13.65;2.55;;;;;;;8.11;100.00;102364.59;5087942;28;20108;-82
2023/02/03 05:59:54;;;;;;;13.80;2.58;;;;;;;8.10;100.00;102364.53;5084923;28;20028;-81
2023/02/03 06:02:19;;;;;;;11.65;2.50;;;;;;;8.04;100.00;102367.81;5084858;28;20070;-82
2023/02/03 06:04:44;;;;;;;14.40;2.50;;;;;;;8.10;100.00;102344.34;5087902;28;20028;-80
2023/02/03 06:07:10;;;;;;;13.60;2.50;;;;;;;8.14;100.00;102356.78;5086051;28;20390;-83
2023/02/03 06:09:35;;;;;;;14.82;2.75;;;;;;;8.08;100.00;102366.19;5086182;28;20399;-83
2023/02/03 06:12:00;;;;;;;12.75;2.58;;;;;;;8.02;100.00;102346.69;5087453;28;20111;-82
2023/02/03 06:14:27;;;;;;;14.52;2.70;;;;;;;7.99;100.00;102367.63;5084914;28;20040;-76
2023/02/03 06:16:52;;;;;;;16.27;2.80;;;;;;;8.07;100.00;102364.38;5088299;28;20386;-83
2023/02/03 06:19:18;;;;;;;14.75;2.70;;;;;;;8.11;100.00;102371.56;5084922;28;20085;-83
2023/02/03 06:21:43;;;;;;;14.25;2.60;;;;;;;7.96;100.00;102353.44;5087027;28;20118;-82
2023/02/03 06:24:09;;;;;;;14.80;2.75;;;;;;;8.03;100.00;102374.78;5086083;28;20028;-82
2023/02/03 06:26:35;;;;;;;15.48;2.75;;;;;;;8.03;100.00;102376.53;5085839;28;20025;-82
2023/02/03 06:29:00;;;;;;;14.95;2.60;;;;;;;8.03;100.00;102373.91;5085914;28;20077;-83
2023/02/03 06:31:25;;;;;;;15.35;3.00;;;;;;;7.97;100.00;102365.78;5084525;28;20122;-79
2023/02/03 06:33:50;;;;;;;14.07;2.63;;;;;;;8.02;100.00;102336.16;5087863;28;20028;-79
2023/02/03 06:36:16;;;;;;;13.38;2.78;;;;;;;8.01;100.00;102358.06;5089962;28;20028;-78
2023/02/03 06:38:41;;;;;;;15.55;2.90;;;;;;;8.01;100.00;102344.88;5094775;28;20031;-80
2023/02/03 06:41:06;;;;;;;15.88;3.00;;;;;;;8.00;100.00;102343.06;5094397;28;20146;-79
2023/02/03 06:43:32;;;;;;;16.42;2.83;;;;;;;7.96;100.00;102356.97;5092539;28;20107;-79
2023/02/03 06:45:57;;;;;;;12.48;3.00;;;;;;;7.99;100.00;102354.47;5095580;28;20047;-80
2023/02/03 06:48:23;;;;;;;14.25;3.10;;;;;;;7.94;100.00;102327.03;5095313;28;20020;-80
2023/02/03 06:50:48;;;;;;;15.32;2.92;;;;;;;8.02;100.00;102345.78;5094563;28;20035;-81
2023/02/03 06:53:13;;;;;;;14.25;2.85;;;;;;;8.01;100.00;102365.94;5093676;28;20028;-80
2023/02/03 06:55:39;;;;;;;17.08;3.30;;;;;;;8.01;100.00;102363.31;5094403;28;20556;-76
2023/02/03 06:58:04;;;;;;;13.00;2.97;;;;;;;8.04;100.00;102359.91;5095638;28;20020;-80
2023/02/03 07:00:29;;;;;;;13.90;3.08;;;;;;;8.01;100.00;102333.47;5093088;28;20040;-80
2023/02/03 07:02:57;;;;;;;13.82;2.85;;;;;;;8.06;100.00;102352.06;5094799;28;20039;-79
2023/02/03 07:05:23;;;;;;;14.80;3.28;;;;;;;8.00;100.00;102363.25;5093190;28;20047;-80
2023/02/03 07:07:49;;;;;;;15.85;3.22;;;;;;;7.99;100.00;102365.00;5094724;28;20028;-75
2023/02/03 07:10:15;;;;;;;13.63;3.00;;;;;;;8.03;100.00;102364.25;5094432;28;20407;-79
2023/02/03 07:12:40;;;;;;;16.85;3.13;;;;;;;8.15;100.00;102389.28;5094377;28;20546;-81
2023/02/03 07:15:06;;;;;;;14.75;3.00;;;;;;;8.19;100.00;102370.13;5094524;28;20063;-79
2023/02/03 07:17:31;;;;;;;13.27;3.10;;;;;;;8.15;100.00;102389.28;5093836;28;20056;-81
2023/02/03 07:19:57;;;;;;;14.98;3.03;;;;;;;8.09;100.00;102394.31;5093980;28;20024;-83
2023/02/03 07:22:22;;;;;;;15.57;3.10;;;;;;;8.10;100.00;102402.28;5094402;28;20020;-79
2023/02/03 07:24:48;;;;;;;14.52;3.25;;;;;;;8.14;100.00;102390.13;5093851;28;20032;-80
2023/02/03 07:27:13;;;;;;;17.50;3.42;;;;;;;8.13;100.00;102401.50;5094894;28;20024;-81
2023/02/03 07:29:39;;;;;;;16.63;3.40;;;;;;;8.15;100.00;102389.28;5093919;28;20121;-79
2023/02/03 07:32:04;;;;;;;16.77;3.20;;;;;;;8.17;100.00;102380.63;5094528;28;20048;-80
2023/02/03 07:34:29;;;;;;;16.15;3.47;;;;;;;8.15;100.00;102390.19;5087608;28;20108;-79
2023/02/03 07:36:56;;;;;;;17.20;3.30;;;;;;;8.23;100.00;102403.66;5087520;28;20040;-77
2023/02/03 07:39:21;;;;;;;15.98;3.20;;;;;;;8.17;100.00;102391.16;5090231;28;20489;-76
2023/02/03 07:41:46;;;;;;;12.43;3.00;;;;;;;8.17;100.00;102383.25;5091038;28;20035;-78
2023/02/03 07:44:12;;;;;;;15.80;3.17;;;;;;;8.21;100.00;102381.63;5093800;28;20428;-77
2023/02/03 07:46:43;;;;;;;17.80;3.40;;;;;;;8.23;100.00;102415.94;5093223;28;20393;-78
2023/02/03 07:49:09;;;;;;;18.40;3.78;;;;;;;8.19;100.00;102399.13;5093281;28;20028;-76
2023/02/03 07:51:35;;;;;;;16.48;3.60;;;;;;;8.19;100.00;102391.22;5085826;28;20113;-78
2023/02/03 07:54:00;;;;;;;15.70;3.35;;;;;;;8.15;100.00;102377.00;5090457;28;20024;-78
2023/02/03 07:56:26;;;;;;;17.38;3.58;;;;;;;8.17;100.00;102393.78;5085383;28;20059;-77
2023/02/03 07:58:51;;;;;;;14.73;3.30;;;;;;;8.20;100.00;102388.63;5090564;28;20025;-79
2023/02/03 08:01:17;;;;;;;17.55;3.70;;;;;;;8.22;100.00;102393.97;5085557;28;20084;-79
2023/02/03 08:03:42;;;;;;;15.57;3.35;;;;;;;8.24;100.00;102405.44;5092723;28;20102;-75
2023/02/03 08:06:08;;;;;;;16.00;3.50;;;;;;;8.20;100.00;102404.44;5093563;28;20475;-74
2023/02/03 08:08:34;;;;;;;18.25;3.70;;;;;;;8.22;100.00;102412.41;5094064;28;20104;-75
2023/02/03 08:10:59;;;;;;;15.40;3.42;;;;;;;8.20;100.00;102407.06;5092940;28;20020;-75
2023/02/03 08:13:25;;;;;;;15.82;3.40;;;;;;;8.14;100.00;102411.19;5093085;28;20046;-75
2023/02/03 08:15:50;;;;;;;17.95;3.78;;;;;;;8.15;100.00;102403.34;5092625;28;20119;-76
2023/02/03 08:18:15;;;;;;;17.08;3.47;;;;;;;8.17;100.00;102412.22;5093259;28;20387;-76
2023/02/03 08:20:41;;;;;;;16.38;3.40;;;;;;;8.19;100.00;102433.34;5085161;28;20394;-76
2023/02/03 08:23:06;;;;;;;18.48;3.40;;;;;;;8.16;100.00;102439.41;5084991;28;20046;-76
2023/02/03 08:25:32;;;;;;;18.60;3.85;;;;;;;8.20;100.00;102430.78;5091982;28;20036;-77
2023/02/03 08:27:57;;;;;;;18.17;3.80;;;;;;;8.16;100.00;102420.97;5088666;28;20032;-78
2023/02/03 08:30:23;;;;;;;17.38;3.70;;;;;;;8.21;100.00;102436.94;5092432;28;20048;-75
2023/02/03 08:32:49;;;;;;;18.55;3.65;;;;;;;8.18;100.00;102431.56;5093228;28;20021;-75
2023/02/03 08:35:15;;;;;;;17.58;3.72;;;;;;;8.17;100.00;102432.41;5092809;28;20028;-75
2023/02/03 08:37:41;;;;;;;17.63;3.70;;;;;;;8.15;100.00;102434.97;5093343;28;20055;-75
2023/02/03 08:40:08;;;;;;;16.92;3.63;;;;;;;8.17;100.00;102459.66;5091881;28;20441;-74
2023/02/03 08:42:33;;;;;;;16.25;3.50;;;;;;;8.13;100.00;102449.81;5092721;28;20039;-75
2023/02/03 08:44:58;;;;;;;15.20;3.50;;;;;;;8.16;100.00;102459.59;5092248;28;20111;-75
2023/02/03 08:47:25;;;;;;;18.83;3.90;;;;;;;8.17;100.00;102458.75;5092943;28;20058;-74
2023/02/03 08:49:50;;;;;;;17.65;3.80;;;;;;;8.14;100.00;102462.16;5092994;28;20024;-74
2023/02/03 08:52:16;;;;;;;16.67;3.80;;;;;;;8.15;100.00;102474.47;5093054;28;20089;-75
2023/02/03 08:54:41;;;;;;;19.27;4.07;;;;;;;8.12;100.00;102457.66;5090516;28;20047;-75
2023/02/03 08:57:07;;;;;;;18.40;4.20;;;;;;;8.10;100.00;102462.88;5083838;28;20111;-75
2023/02/03 08:59:35;;;;;;;15.60;3.50;;;;;;;8.19;100.00;102457.06;5082965;28;20051;-77
2023/02/03 09:02:01;;;;;;;16.33;3.78;;;;;;;8.12;100.00;102441.84;5089849;28;20390;-79
2023/02/03 09:04:27;;;;;;;16.80;3.78;;;;;;;8.07;100.00;102456.56;5084208;28;20032;-80
2023/02/03 09:06:53;;;;;;;18.52;3.90;;;;;;;8.11;100.00;102462.03;5084090;28;20035;-79
2023/02/03 09:12:19;;;;;;;18.75;4.10;;;;;;;8.11;100.00;102447.94;5084966;28;20051;-80
2023/02/03 09:14:44;;;;;;;20.42;4.32;;;;;;;8.20;100.00;102465.03;5088201;28;20044;-82
2023/02/03 09:17:10;;;;;;;18.38;4.10;;;;;;;8.21;100.00;102444.84;5092285;28;20055;-77
2023/02/03 09:19:44;;;;;;;19.73;4.28;;;;;;;8.22;100.00;102454.56;5090943;28;20078;-79
2023/02/03 09:22:10;;;;;;;17.60;4.07;;;;;;;8.18;100.00;102457.91;5090526;28;20498;-77
2023/02/03 09:24:35;;;;;;;19.88;4.10;;;;;;;8.20;100.00;102458.88;5092271;28;20071;-78
2023/02/03 09:27:01;;;;;;;18.23;4.13;;;;;;;8.27;100.00;102458.28;5091502;28;20030;-77
2023/02/03 09:29:26;;;;;;;17.27;3.97;;;;;;;8.32;100.00;102464.63;5091981;28;20076;-76
2023/02/03 09:31:52;;;;;;;20.58;4.30;;;;;;;8.32;100.00;102476.91;5092661;28;20128;-77
2023/02/03 09:34:19;;;;;;;17.83;3.92;;;;;;;8.38;100.00;102475.38;5091576;28;20024;-77
2023/02/03 09:36:45;;;;;;;16.15;3.70;;;;;;;8.36;100.00;102494.66;5091950;28;20028;-80
2023/02/03 09:39:10;;;;;;;17.13;3.90;;;;;;;8.49;100.00;102488.13;5090586;28;20036;-78
2023/02/03 09:41:43;;;;;;;21.27;4.10;;;;;;;8.40;100.00;102500.91;5091697;28;20031;-77
2023/02/03 09:44:37;;;;;;;16.27;3.97;;;;;;;8.50;100.00;102504.03;5091718;28;20466;-78
2023/02/03 09:47:10;;;;;;;18.98;3.60;;;;;;;8.35;100.00;102504.25;5080800;28;20040;-76
2023/02/03 09:49:56;;;;;;;22.27;4.47;;;;;;;8.38;100.00;102495.59;5089279;28;20374;-75
2023/02/03 09:52:28;;;;;;;19.58;3.83;;;;;;;8.41;100.00;102494.81;5091423;28;20368;-76
2023/02/03 09:55:28;;;;;;;20.20;3.85;;;;;;;8.37;100.00;102505.25;5091144;28;20027;-76
2023/02/03 09:58:04;;;;;;;19.55;3.90;;;;;;;8.40;100.00;102496.53;5090096;28;20036;-75
2023/02/03 10:00:48;;;;;;;18.92;3.58;;;;;;;8.39;100.00;102500.03;5089109;28;20475;-77
2023/02/03 10:03:31;;;;;;;20.67;3.88;;;;;;;8.35;100.00;102504.25;5089853;28;20032;-81
2023/02/03 10:06:30;;;;;;;18.83;3.65;;;;;;;8.42;100.00;102478.16;5091621;28;20452;-81
2023/02/03 10:09:17;;;;;;;17.80;4.00;;;;;;;8.46;100.00;102493.28;5091931;28;20089;-84
2023/02/03 10:12:20;;;;;;;19.15;3.60;;;;;;;8.55;100.00;102502.44;5089937;28;20024;-81
2023/02/03 10:15:27;;;;;;;20.80;3.92;;;;;;;8.49;100.00;102485.50;5083892;28;20391;-79
2023/02/03 10:17:58;;;;;;;18.77;4.10;;;;;;;8.58;100.00;102483.22;5049089;28;20582;-84
2023/02/03 10:20:41;;;;;;;20.80;4.20;;;;;;;8.67;100.00;102501.13;5084436;28;20539;-84
2023/02/03 10:23:28;;;;;;;18.98;3.70;;;;;;;8.75;100.00;102501.44;5088278;28;20063;-84
2023/02/03 10:25:55;;;;;;;18.90;3.42;;;;;;;8.73;100.00;102498.72;5089224;28;20028;-77
2023/02/03 10:28:24;;;;;;;19.90;3.83;;;;;;;8.75;100.00;102501.44;5091347;28;20536;-77
2023/02/03 10:30:55;;;;;;;20.10;3.95;;;;;;;8.79;100.00;102511.25;5090883;28;20067;-76
2023/02/03 10:33:23;;;;;;;21.90;3.85;;;;;;;8.83;100.00;102497.34;5091921;28;20028;-76
2023/02/03 10:36:07;;;;;;;19.00;3.88;;;;;;;8.86;100.00;102486.91;5088730;28;20036;-79
2023/02/03 10:38:51;;;;;;;20.08;3.72;;;;;;;8.96;100.00;102483.78;5081640;28;20066;-76
2023/02/03 10:41:19;;;;;;;20.30;4.40;;;;;;;9.00;100.00;102503.22;5083518;28;20025;-79
2023/02/03 10:43:46;;;;;;;18.38;3.70;;;;;;;9.08;100.00;102507.06;5082698;28;20083;-79
2023/02/03 10:46:12;;;;;;;18.60;3.50;;;;;;;9.09;100.00;102490.41;5085431;28;20047;-79
2023/02/03 10:48:38;;;;;;;19.25;3.58;;;;;;;9.17;100.00;102493.31;5086741;28;21083;-77
2023/02/03 10:51:11;;;;;;;17.83;3.72;;;;;;;9.24;100.00;102497.97;5083812;28;20020;-75
2023/02/03 10:53:36;;;;;;;;;;;;;;;9.32;100.00;102493.88;5085781;28;20036;-76
2023/02/03 10:56:12;;;;;;;18.20;3.58;;;;;;;9.29;100.00;102503.41;5085793;28;19961;-77
2023/02/03 10:58:45;;;;;;;19.13;3.60;;;;;;;9.32;100.00;102485.03;5087486;28;20043;-80
2023/02/03 11:01:16;;;;;;;18.25;3.30;;;;;;;9.40;100.00;102495.03;5094049;28;20030;-79
2023/02/03 11:03:54;;;;;;;20.13;3.55;;;;;;;9.49;100.00;102490.94;5094728;28;20036;-84
2023/02/03 11:06:19;;;;;;;20.30;3.88;;;;;;;9.41;100.00;102488.91;5093242;28;20024;-84
2023/02/03 11:08:48;;;;;;;20.05;3.55;;;;;;;9.49;100.00;102497.09;5094188;28;20565;-83
2023/02/03 11:11:36;;;;;;;20.08;3.90;;;;;;;9.46;100.00;102522.50;5094054;28;20389;-84
2023/02/03 11:14:01;;;;;;;18.02;3.55;;;;;;;9.41;100.00;102504.75;5094354;28;20024;-81
2023/02/03 11:16:28;;;;;;;18.35;4.05;;;;;;;9.40;100.00;102508.22;5086804;28;20086;-82
2023/02/03 11:19:06;;;;;;;19.00;4.05;;;;;;;9.46;100.00;102510.19;5086495;28;20386;-83
2023/02/03 11:21:37;;;;;;;19.63;3.75;;;;;;;9.50;100.00;102512.09;5084488;28;20378;-82
2023/02/03 11:24:10;;;;;;;20.33;3.95;;;;;;;9.51;100.00;102518.28;5084911;28;20382;-81
2023/02/03 11:26:43;;;;;;;18.50;3.47;;;;;;;9.56;100.00;102514.06;5085968;28;20444;-79
2023/02/03 11:29:37;;;;;;;17.25;3.45;;;;;;;9.53;100.00;102513.97;5084039;28;20357;-79
2023/02/03 11:32:14;;;;;;;20.95;4.25;;;;;;;9.45;100.00;102499.56;5084709;28;20048;-83